sensor_id;sensor_type;location;lat;lon;timestamp;pressure;altitude;pressure_sealevel;temperature;humidity
4392;BME280;2210;51.938;8.488;2022-12-18T00:00:55;101910.34;;;-8.53;100.00
4392;BME280;2210;51.938;8.488;2022-12-18T00:04:55;101906.38;;;-8.81;100.00
4392;BME280;2210;51.938;8.488;2022-12-18T00:08:57;101902.13;;;-8.85;100.00
4392;BME280;2210;51.938;8.488;2022-12-18T00:12:57;101902.16;;;-8.67;100.00
4392;BME280;2210;51.938;8.488;2022-12-18T00:17:01;101897.59;;;-8.48;100.00
4392;BME280;2210;51.938;8.488;2022-12-18T00:21:04;101894.75;;;-8.62;100.00
4392;BME280;2210;51.938;8.488;2022-12-18T00:25:08;101905.19;;;-8.57;100.00
4392;BME280;2210;51.938;8.488;2022-12-18T00:29:13;101914.75;;;-8.36;100.00
4392;BME280;2210;51.938;8.488;2022-12-18T00:33:16;101916.88;;;-8.42;100.00
4392;BME280;2210;51.938;8.488;2022-12-18T00:37:17;101917.72;;;-8.58;100.00
4392;BME280;2210;51.938;8.488;2022-12-18T00:41:20;101912.16;;;-8.37;100.00
4392;BME280;2210;51.938;8.488;2022-12-18T00:45:40;101912.72;;;-8.31;100.00
4392;BME280;2210;51.938;8.488;2022-12-18T00:49:41;101912.31;;;-8.23;100.00
4392;BME280;2210;51.938;8.488;2022-12-18T00:53:44;101917.09;;;-8.45;100.00
4392;BME280;2210;51.938;8.488;2022-12-18T00:57:47;101914.97;;;-8.56;100.00
4392;BME280;2210;51.938;8.488;2022-12-18T01:01:50;101905.63;;;-8.48;100.00
4392;BME280;2210;51.938;8.488;2022-12-18T01:05:59;101900.84;;;-8.42;100.00
4392;BME280;2210;51.938;8.488;2022-12-18T01:09:59;101907.88;;;-8.57;100.00
4392;BME280;2210;51.938;8.488;2022-12-18T01:14:00;101910.16;;;-8.50;100.00
4392;BME280;2210;51.938;8.488;2022-12-18T01:18:00;101892.78;;;-8.25;100.00
4392;BME280;2210;51.938;8.488;2022-12-18T01:22:06;101893.69;;;-8.08;100.00
4392;BME280;2210;51.938;8.488;2022-12-18T01:26:13;101902.84;;;-8.13;100.00
4392;BME280;2210;51.938;8.488;2022-12-18T01:30:14;101889.59;;;-7.98;100.00
4392;BME280;2210;51.938;8.488;2022-12-18T01:34:17;101893.16;;;-7.82;100.00
4392;BME280;2210;51.938;8.488;2022-12-18T01:38:23;101893.66;;;-7.91;100.00
4392;BME280;2210;51.938;8.488;2022-12-18T01:42:24;101898.56;;;-7.99;100.00
4392;BME280;2210;51.938;8.488;2022-12-18T01:46:26;101903.47;;;-8.07;100.00
4392;BME280;2210;51.938;8.488;2022-12-18T01:50:34;101906.84;;;-8.04;100.00
4392;BME280;2210;51.938;8.488;2022-12-18T01:54:36;101896.84;;;-7.84;100.00
4392;BME280;2210;51.938;8.488;2022-12-18T01:58:39;101895.75;;;-7.96;100.00
4392;BME280;2210;51.938;8.488;2022-12-18T02:02:43;101902.34;;;-8.03;100.00
4392;BME280;2210;51.938;8.488;2022-12-18T02:06:44;101899.97;;;-7.92;100.00
4392;BME280;2210;51.938;8.488;2022-12-18T02:11:08;101898.59;;;-7.83;100.00
4392;BME280;2210;51.938;8.488;2022-12-18T02:15:37;101906.53;;;-7.82;100.00
4392;BME280;2210;51.938;8.488;2022-12-18T02:20:19;101895.06;;;-7.84;100.00
4392;BME280;2210;51.938;8.488;2022-12-18T02:24:28;101899.97;;;-7.92;100.00
4392;BME280;2210;51.938;8.488;2022-12-18T02:28:36;101904.34;;;-8.07;100.00
4392;BME280;2210;51.938;8.488;2022-12-18T02:32:43;101895.28;;;-8.04;100.00
4392;BME280;2210;51.938;8.488;2022-12-18T02:36:47;101893.66;;;-7.91;100.00
4392;BME280;2210;51.938;8.488;2022-12-18T02:40:48;101875.53;;;-7.86;100.00
4392;BME280;2210;51.938;8.488;2022-12-18T02:44:52;101873.72;;;-8.01;100.00
4392;BME280;2210;51.938;8.488;2022-12-18T02:48:56;101874.41;;;-7.82;100.00
4392;BME280;2210;51.938;8.488;2022-12-18T02:53:19;101891.72;;;-7.71;100.00
4392;BME280;2210;51.938;8.488;2022-12-18T02:57:50;101892.53;;;-7.87;100.00
4392;BME280;2210;51.938;8.488;2022-12-18T03:02:01;101899.22;;;-8.11;100.00
4392;BME280;2210;51.938;8.488;2022-12-18T03:06:22;101893.81;;;-7.94;100.00
4392;BME280;2210;51.938;8.488;2022-12-18T03:10:27;101887.19;;;-7.87;100.00
4392;BME280;2210;51.938;8.488;2022-12-18T03:14:36;101883.59;;;-7.54;100.00
4392;BME280;2210;51.938;8.488;2022-12-18T03:18:48;101865.88;;;-7.40;100.00
4392;BME280;2210;51.938;8.488;2022-12-18T03:22:59;101868.16;;;-7.02;100.00
4392;BME280;2210;51.938;8.488;2022-12-18T03:27:07;101881.59;;;-7.18;100.00
4392;BME280;2210;51.938;8.488;2022-12-18T03:31:14;101889.31;;;-7.28;100.00
4392;BME280;2210;51.938;8.488;2022-12-18T03:35:22;101904.34;;;-7.41;100.00
4392;BME280;2210;51.938;8.488;2022-12-18T03:39:24;101894.75;;;-7.46;100.00
4392;BME280;2210;51.938;8.488;2022-12-18T03:43:48;101887.22;;;-7.55;100.00
4392;BME280;2210;51.938;8.488;2022-12-18T03:48:07;101885.91;;;-7.80;100.00
4392;BME280;2210;51.938;8.488;2022-12-18T03:52:19;101896.16;;;-8.04;100.00
4392;BME280;2210;51.938;8.488;2022-12-18T03:56:22;101894.34;;;-7.87;100.00
4392;BME280;2210;51.938;8.488;2022-12-18T04:00:30;101887.03;;;-7.84;100.00
4392;BME280;2210;51.938;8.488;2022-12-18T04:04:33;101891.53;;;-7.68;100.00
4392;BME280;2210;51.938;8.488;2022-12-18T04:08:46;101876.31;;;-7.20;100.00
4392;BME280;2210;51.938;8.488;2022-12-18T04:12:47;101875.69;;;-7.09;100.00
4392;BME280;2210;51.938;8.488;2022-12-18T04:16:50;101876.66;;;-6.80;100.00
4392;BME280;2210;51.938;8.488;2022-12-18T04:20:50;101882.41;;;-6.86;100.00
4392;BME280;2210;51.938;8.488;2022-12-18T04:24:51;101890.06;;;-6.80;100.00
4392;BME280;2210;51.938;8.488;2022-12-18T04:28:51;101895.75;;;-6.70;100.00
4392;BME280;2210;51.938;8.488;2022-12-18T04:32:51;101889.75;;;-6.59;100.00
4392;BME280;2210;51.938;8.488;2022-12-18T04:36:51;101894.34;;;-6.61;100.00
4392;BME280;2210;51.938;8.488;2022-12-18T04:40:55;101900.50;;;-6.45;100.00
4392;BME280;2210;51.938;8.488;2022-12-18T04:45:05;101890.75;;;-6.46;100.00
4392;BME280;2210;51.938;8.488;2022-12-18T04:49:05;101906.63;;;-6.57;100.00
4392;BME280;2210;51.938;8.488;2022-12-18T04:53:05;101909.69;;;-6.49;100.00
4392;BME280;2210;51.938;8.488;2022-12-18T04:57:09;101905.25;;;-6.64;100.00
4392;BME280;2210;51.938;8.488;2022-12-18T05:01:14;101898.16;;;-6.65;100.00
4392;BME280;2210;51.938;8.488;2022-12-18T05:05:15;101889.28;;;-6.51;100.00
4392;BME280;2210;51.938;8.488;2022-12-18T05:09:18;101886.28;;;-6.31;100.00
4392;BME280;2210;51.938;8.488;2022-12-18T05:13:21;101883.38;;;-6.13;100.00
4392;BME280;2210;51.938;8.488;2022-12-18T05:17:21;101873.72;;;-6.16;100.00
4392;BME280;2210;51.938;8.488;2022-12-18T05:21:22;101869.22;;;-6.15;100.00
4392;BME280;2210;51.938;8.488;2022-12-18T05:25:25;101873.53;;;-6.13;100.00
4392;BME280;2210;51.938;8.488;2022-12-18T05:29:28;101868.03;;;-6.25;100.00
4392;BME280;2210;51.938;8.488;2022-12-18T05:33:32;101875.06;;;-6.37;100.00
4392;BME280;2210;51.938;8.488;2022-12-18T05:37:32;101872.91;;;-6.32;100.00
4392;BME280;2210;51.938;8.488;2022-12-18T05:41:33;101882.22;;;-6.52;100.00
4392;BME280;2210;51.938;8.488;2022-12-18T05:45:37;101886.28;;;-6.61;100.00
4392;BME280;2210;51.938;8.488;2022-12-18T05:49:38;101882.88;;;-6.49;100.00
4392;BME280;2210;51.938;8.488;2022-12-18T05:53:38;101884.91;;;-6.52;100.00
4392;BME280;2210;51.938;8.488;2022-12-18T05:57:39;101873.38;;;-6.54;100.00
4392;BME280;2210;51.938;8.488;2022-12-18T06:01:39;101876.66;;;-6.49;100.00
4392;BME280;2210;51.938;8.488;2022-12-18T06:05:42;101883.66;;;-6.47;100.00
4392;BME280;2210;51.938;8.488;2022-12-18T06:09:42;101883.47;;;-6.44;100.00
4392;BME280;2210;51.938;8.488;2022-12-18T06:13:42;101879.53;;;-6.38;100.00
4392;BME280;2210;51.938;8.488;2022-12-18T06:17:49;101879.53;;;-6.38;100.00
4392;BME280;2210;51.938;8.488;2022-12-18T06:21:49;101896.41;;;-6.36;100.00
4392;BME280;2210;51.938;8.488;2022-12-18T06:25:53;101904.16;;;-6.46;100.00
4392;BME280;2210;51.938;8.488;2022-12-18T06:29:53;101898.34;;;-6.68;100.00
4392;BME280;2210;51.938;8.488;2022-12-18T06:33:54;101915.72;;;-6.90;100.00
4392;BME280;2210;51.938;8.488;2022-12-18T06:37:54;101913.22;;;-6.93;100.00
4392;BME280;2210;51.938;8.488;2022-12-18T06:41:54;101913.63;;;-6.85;100.00
4392;BME280;2210;51.938;8.488;2022-12-18T06:45:59;101911.56;;;-6.65;100.00
4392;BME280;2210;51.938;8.488;2022-12-18T06:50:00;101916.09;;;-6.51;100.00
4392;BME280;2210;51.938;8.488;2022-12-18T06:54:00;101905.50;;;-6.38;100.00
4392;BME280;2210;51.938;8.488;2022-12-18T06:58:01;101920.78;;;-6.24;100.00
4392;BME280;2210;51.938;8.488;2022-12-18T07:02:01;101920.66;;;-6.23;100.00
4392;BME280;2210;51.938;8.488;2022-12-18T07:06:01;101919.25;;;-6.14;100.00
4392;BME280;2210;51.938;8.488;2022-12-18T07:10:02;101928.06;;;-6.12;100.00
4392;BME280;2210;51.938;8.488;2022-12-18T07:14:02;101926.47;;;-6.00;100.00
4392;BME280;2210;51.938;8.488;2022-12-18T07:18:03;101919.16;;;-6.13;100.00
4392;BME280;2210;51.938;8.488;2022-12-18T07:22:06;101911.19;;;-6.00;100.00
4392;BME280;2210;51.938;8.488;2022-12-18T07:26:11;101912.66;;;-6.08;100.00
4392;BME280;2210;51.938;8.488;2022-12-18T07:30:15;101913.28;;;-5.90;100.00
4392;BME280;2210;51.938;8.488;2022-12-18T07:34:19;101911.94;;;-5.83;100.00
4392;BME280;2210;51.938;8.488;2022-12-18T07:38:22;101913.09;;;-5.87;100.00
4392;BME280;2210;51.938;8.488;2022-12-18T07:42:22;101908.19;;;-5.81;100.00
4392;BME280;2210;51.938;8.488;2022-12-18T07:46:31;101930.53;;;-5.66;100.00
4392;BME280;2210;51.938;8.488;2022-12-18T07:50:31;101927.00;;;-5.52;100.00
4392;BME280;2210;51.938;8.488;2022-12-18T07:54:31;101916.03;;;-5.34;100.00
4392;BME280;2210;51.938;8.488;2022-12-18T07:58:33;101920.25;;;-5.30;100.00
4392;BME280;2210;51.938;8.488;2022-12-18T08:02:34;101914.53;;;-5.11;100.00
4392;BME280;2210;51.938;8.488;2022-12-18T08:06:37;101898.06;;;-5.06;100.00
4392;BME280;2210;51.938;8.488;2022-12-18T08:10:40;101901.13;;;-4.98;100.00
4392;BME280;2210;51.938;8.488;2022-12-18T08:14:40;101891.97;;;-4.96;100.00
4392;BME280;2210;51.938;8.488;2022-12-18T08:18:41;101898.03;;;-4.92;100.00
4392;BME280;2210;51.938;8.488;2022-12-18T08:22:41;101892.78;;;-4.81;100.00
4392;BME280;2210;51.938;8.488;2022-12-18T08:26:48;101887.53;;;-4.69;100.00
4392;BME280;2210;51.938;8.488;2022-12-18T08:30:51;101873.66;;;-4.63;100.00
4392;BME280;2210;51.938;8.488;2022-12-18T08:34:52;101868.28;;;-4.50;100.00
4392;BME280;2210;51.938;8.488;2022-12-18T08:38:52;101871.44;;;-4.31;100.00
4392;BME280;2210;51.938;8.488;2022-12-18T08:42:59;101874.78;;;-4.14;100.00
4392;BME280;2210;51.938;8.488;2022-12-18T08:47:21;101863.13;;;-4.02;100.00
4392;BME280;2210;51.938;8.488;2022-12-18T08:51:21;101864.75;;;-3.99;100.00
4392;BME280;2210;51.938;8.488;2022-12-18T08:55:22;101871.66;;;-3.82;100.00
4392;BME280;2210;51.938;8.488;2022-12-18T08:59:22;101871.31;;;-3.78;100.00
4392;BME280;2210;51.938;8.488;2022-12-18T09:03:23;101875.38;;;-3.72;100.00
4392;BME280;2210;51.938;8.488;2022-12-18T09:07:23;101863.22;;;-3.65;100.00
4392;BME280;2210;51.938;8.488;2022-12-18T09:11:25;101862.31;;;-3.52;100.00
4392;BME280;2210;51.938;8.488;2022-12-18T09:15:26;101864.91;;;-3.51;100.00
4392;BME280;2210;51.938;8.488;2022-12-18T09:19:32;101868.97;;;-3.45;100.00
4392;BME280;2210;51.938;8.488;2022-12-18T09:23:35;101865.72;;;-3.37;100.00
4392;BME280;2210;51.938;8.488;2022-12-18T09:27:39;101876.72;;;-3.41;100.00
4392;BME280;2210;51.938;8.488;2022-12-18T09:31:39;101874.22;;;-3.31;100.00
4392;BME280;2210;51.938;8.488;2022-12-18T09:35:41;101869.69;;;-3.30;100.00
4392;BME280;2210;51.938;8.488;2022-12-18T09:44:42;101867.75;;;-3.28;100.00
4392;BME280;2210;51.938;8.488;2022-12-18T09:48:50;101866.91;;;-3.17;100.00
4392;BME280;2210;51.938;8.488;2022-12-18T09:52:55;101864.69;;;-2.99;100.00
4392;BME280;2210;51.938;8.488;2022-12-18T09:56:56;101867.78;;;-2.93;100.00
4392;BME280;2210;51.938;8.488;2022-12-18T10:01:00;101875.06;;;-2.82;100.00
4392;BME280;2210;51.938;8.488;2022-12-18T10:05:07;101880.06;;;-2.64;100.00
4392;BME280;2210;51.938;8.488;2022-12-18T10:09:16;101867.91;;;-2.59;100.00
4392;BME280;2210;51.938;8.488;2022-12-18T10:13:23;101866.97;;;-2.46;100.00
4392;BME280;2210;51.938;8.488;2022-12-18T10:17:44;101859.25;;;-2.28;98.73
4392;BME280;2210;51.938;8.488;2022-12-18T10:22:10;101841.59;;;-2.21;97.92
4392;BME280;2210;51.938;8.488;2022-12-18T10:26:14;101822.94;;;-2.01;96.35
4392;BME280;2210;51.938;8.488;2022-12-18T10:30:20;101809.41;;;-1.90;94.59
4392;BME280;2210;51.938;8.488;2022-12-18T10:34:21;101806.94;;;-1.82;92.74
4392;BME280;2210;51.938;8.488;2022-12-18T10:38:24;101792.66;;;-1.73;92.21
4392;BME280;2210;51.938;8.488;2022-12-18T10:42:25;101783.97;;;-1.76;92.03
4392;BME280;2210;51.938;8.488;2022-12-18T10:46:25;101785.66;;;-1.64;90.85
4392;BME280;2210;51.938;8.488;2022-12-18T10:50:29;101771.88;;;-1.61;89.32
4392;BME280;2210;51.938;8.488;2022-12-18T10:54:31;101774.47;;;-1.59;88.71
4392;BME280;2210;51.938;8.488;2022-12-18T10:58:34;101777.50;;;-1.53;87.11
4392;BME280;2210;51.938;8.488;2022-12-18T11:02:37;101764.59;;;-1.49;86.64
4392;BME280;2210;51.938;8.488;2022-12-18T11:07:13;101747.50;;;-1.49;86.42
4392;BME280;2210;51.938;8.488;2022-12-18T11:11:20;101746.88;;;-1.42;85.69
4392;BME280;2210;51.938;8.488;2022-12-18T11:15:27;101742.50;;;-1.33;84.78
4392;BME280;2210;51.938;8.488;2022-12-18T11:19:33;101722.34;;;-1.29;84.16
4392;BME280;2210;51.938;8.488;2022-12-18T11:23:35;101695.22;;;-1.17;82.12
4392;BME280;2210;51.938;8.488;2022-12-18T11:27:37;101700.50;;;-1.16;82.97
4392;BME280;2210;51.938;8.488;2022-12-18T11:31:37;101699.13;;;-1.10;82.18
4392;BME280;2210;51.938;8.488;2022-12-18T11:35:50;101682.69;;;-0.97;79.89
4392;BME280;2210;51.938;8.488;2022-12-18T11:39:59;101696.94;;;-0.95;79.89
4392;BME280;2210;51.938;8.488;2022-12-18T11:44:03;101677.59;;;-0.91;78.95
4392;BME280;2210;51.938;8.488;2022-12-18T11:48:16;101671.63;;;-0.85;79.01
4392;BME280;2210;51.938;8.488;2022-12-18T11:52:49;101669.53;;;-0.81;78.32
4392;BME280;2210;51.938;8.488;2022-12-18T11:56:57;101668.97;;;-0.75;77.95
4392;BME280;2210;51.938;8.488;2022-12-18T12:05:25;101656.34;;;-0.64;76.09
4392;BME280;2210;51.938;8.488;2022-12-18T12:09:35;101636.13;;;-0.60;75.81
4392;BME280;2210;51.938;8.488;2022-12-18T12:13:40;101624.59;;;-0.53;75.24
4392;BME280;2210;51.938;8.488;2022-12-18T12:18:09;101611.06;;;-0.53;75.25
4392;BME280;2210;51.938;8.488;2022-12-18T12:27:03;101614.50;;;-0.41;72.93
4392;BME280;2210;51.938;8.488;2022-12-18T12:36:02;101609.38;;;-0.44;72.84
4392;BME280;2210;51.938;8.488;2022-12-18T12:40:13;101614.50;;;-0.41;72.50
4392;BME280;2210;51.938;8.488;2022-12-18T12:44:29;101613.94;;;-0.35;71.18
4392;BME280;2210;51.938;8.488;2022-12-18T12:52:51;101613.53;;;-0.30;69.91
4392;BME280;2210;51.938;8.488;2022-12-18T13:01:14;101608.25;;;-0.31;70.06
4392;BME280;2210;51.938;8.488;2022-12-18T13:05:25;101598.00;;;-0.28;69.92
4392;BME280;2210;51.938;8.488;2022-12-18T13:14:20;101567.19;;;-0.27;69.62
4392;BME280;2210;51.938;8.488;2022-12-18T13:18:24;101564.34;;;-0.25;69.12
4392;BME280;2210;51.938;8.488;2022-12-18T13:22:50;101557.78;;;-0.13;67.78
4392;BME280;2210;51.938;8.488;2022-12-18T13:26:50;101546.38;;;-0.07;67.16
4392;BME280;2210;51.938;8.488;2022-12-18T13:30:57;101538.94;;;0.05;65.45
4392;BME280;2210;51.938;8.488;2022-12-18T13:35:37;101527.25;;;-0.05;66.39
4392;BME280;2210;51.938;8.488;2022-12-18T13:39:38;101532.25;;;-0.01;65.73
4392;BME280;2210;51.938;8.488;2022-12-18T13:43:41;101533.97;;;0.01;65.71
4392;BME280;2210;51.938;8.488;2022-12-18T13:47:43;101534.41;;;0.06;65.57
4392;BME280;2210;51.938;8.488;2022-12-18T13:51:48;101543.09;;;-0.01;65.51
4392;BME280;2210;51.938;8.488;2022-12-18T13:55:49;101534.25;;;-0.03;65.78
4392;BME280;2210;51.938;8.488;2022-12-18T13:59:50;101527.97;;;-0.03;65.99
4392;BME280;2210;51.938;8.488;2022-12-18T14:03:50;101516.84;;;0.00;65.03
4392;BME280;2210;51.938;8.488;2022-12-18T14:07:52;101521.25;;;0.01;65.24
4392;BME280;2210;51.938;8.488;2022-12-18T14:11:53;101519.69;;;-0.02;65.09
4392;BME280;2210;51.938;8.488;2022-12-18T14:16:16;101520.41;;;0.01;65.21
4392;BME280;2210;51.938;8.488;2022-12-18T14:20:17;101520.56;;;-0.01;64.63
4392;BME280;2210;51.938;8.488;2022-12-18T14:24:20;101526.97;;;-0.02;64.78
4392;BME280;2210;51.938;8.488;2022-12-18T14:28:24;101520.13;;;0.04;64.26
4392;BME280;2210;51.938;8.488;2022-12-18T14:32:32;101508.28;;;0.05;64.20
4392;BME280;2210;51.938;8.488;2022-12-18T14:36:44;101516.56;;;0.03;64.08
4392;BME280;2210;51.938;8.488;2022-12-18T14:41:12;101512.56;;;-0.03;64.31
4392;BME280;2210;51.938;8.488;2022-12-18T14:45:47;101509.88;;;-0.03;64.48
4392;BME280;2210;51.938;8.488;2022-12-18T14:49:48;101507.72;;;-0.09;65.16
4392;BME280;2210;51.938;8.488;2022-12-18T14:53:52;101505.72;;;-0.17;65.95
4392;BME280;2210;51.938;8.488;2022-12-18T14:57:54;101500.03;;;-0.13;65.75
4392;BME280;2210;51.938;8.488;2022-12-18T15:06:15;101502.44;;;-0.20;66.71
4392;BME280;2210;51.938;8.488;2022-12-18T15:18:34;101495.03;;;-0.28;66.70
4392;BME280;2210;51.938;8.488;2022-12-18T15:22:47;101504.88;;;-0.37;67.55
4392;BME280;2210;51.938;8.488;2022-12-18T15:26:50;101491.88;;;-0.43;68.38
4392;BME280;2210;51.938;8.488;2022-12-18T15:30:58;101479.59;;;-0.47;68.85
4392;BME280;2210;51.938;8.488;2022-12-18T15:39:16;101460.22;;;-0.52;69.15
4392;BME280;2210;51.938;8.488;2022-12-18T15:43:24;101464.78;;;-0.53;69.55
4392;BME280;2210;51.938;8.488;2022-12-18T15:47:36;101448.94;;;-0.57;69.79
4392;BME280;2210;51.938;8.488;2022-12-18T15:51:37;101449.38;;;-0.62;70.31
4392;BME280;2210;51.938;8.488;2022-12-18T15:55:38;101435.09;;;-0.64;70.59
4392;BME280;2210;51.938;8.488;2022-12-18T16:00:03;101433.13;;;-0.62;70.35
4392;BME280;2210;51.938;8.488;2022-12-18T16:04:14;101441.41;;;-0.63;70.66
4392;BME280;2210;51.938;8.488;2022-12-18T16:08:15;101437.81;;;-0.64;70.98
4392;BME280;2210;51.938;8.488;2022-12-18T16:12:22;101434.56;;;-0.68;70.64
4392;BME280;2210;51.938;8.488;2022-12-18T16:16:24;101423.97;;;-0.71;71.40
4392;BME280;2210;51.938;8.488;2022-12-18T16:20:30;101414.56;;;-0.66;70.79
4392;BME280;2210;51.938;8.488;2022-12-18T16:24:32;101405.59;;;-0.67;70.92
4392;BME280;2210;51.938;8.488;2022-12-18T16:28:33;101397.78;;;-0.70;71.59
4392;BME280;2210;51.938;8.488;2022-12-18T16:32:36;101405.03;;;-0.71;71.66
4392;BME280;2210;51.938;8.488;2022-12-18T16:36:36;101381.38;;;-0.69;71.72
4392;BME280;2210;51.938;8.488;2022-12-18T16:40:37;101386.94;;;-0.70;71.75
4392;BME280;2210;51.938;8.488;2022-12-18T16:44:57;101386.34;;;-0.64;71.00
4392;BME280;2210;51.938;8.488;2022-12-18T16:49:00;101379.38;;;-0.66;71.43
4392;BME280;2210;51.938;8.488;2022-12-18T16:53:01;101372.41;;;-0.69;71.88
4392;BME280;2210;51.938;8.488;2022-12-18T16:57:04;101361.56;;;-0.69;71.54
4392;BME280;2210;51.938;8.488;2022-12-18T17:01:09;101356.16;;;-0.69;71.84
4392;BME280;2210;51.938;8.488;2022-12-18T17:10:05;101342.31;;;-0.66;71.64
4392;BME280;2210;51.938;8.488;2022-12-18T17:14:07;101344.59;;;-0.61;70.88
4392;BME280;2210;51.938;8.488;2022-12-18T17:18:11;101353.00;;;-0.64;71.19
4392;BME280;2210;51.938;8.488;2022-12-18T17:22:14;101345.63;;;-0.62;70.95
4392;BME280;2210;51.938;8.488;2022-12-18T17:26:14;101343.03;;;-0.64;71.22
4392;BME280;2210;51.938;8.488;2022-12-18T17:30:14;101336.47;;;-0.61;70.75
4392;BME280;2210;51.938;8.488;2022-12-18T17:34:15;101337.50;;;-0.62;71.34
4392;BME280;2210;51.938;8.488;2022-12-18T17:38:15;101342.19;;;-0.64;71.95
4392;BME280;2210;51.938;8.488;2022-12-18T17:42:15;101346.88;;;-0.66;71.95
4392;BME280;2210;51.938;8.488;2022-12-18T17:46:16;101335.03;;;-0.65;71.39
4392;BME280;2210;51.938;8.488;2022-12-18T17:50:16;101339.91;;;-0.69;71.52
4392;BME280;2210;51.938;8.488;2022-12-18T17:54:16;101334.06;;;-0.74;72.11
4392;BME280;2210;51.938;8.488;2022-12-18T17:58:17;101326.94;;;-0.75;71.89
4392;BME280;2210;51.938;8.488;2022-12-18T18:02:20;101334.47;;;-0.79;72.41
4392;BME280;2210;51.938;8.488;2022-12-18T18:06:23;101325.66;;;-0.81;71.95
4392;BME280;2210;51.938;8.488;2022-12-18T18:10:23;101316.81;;;-0.83;72.27
4392;BME280;2210;51.938;8.488;2022-12-18T18:14:30;101343.03;;;-0.83;72.26
4392;BME280;2210;51.938;8.488;2022-12-18T18:18:31;101344.47;;;-0.89;72.90
4392;BME280;2210;51.938;8.488;2022-12-18T18:22:32;101341.03;;;-0.91;72.83
4392;BME280;2210;51.938;8.488;2022-12-18T18:26:33;101334.19;;;-0.95;73.54
4392;BME280;2210;51.938;8.488;2022-12-18T18:30:43;101327.34;;;-0.99;73.93
4392;BME280;2210;51.938;8.488;2022-12-18T18:34:43;101331.06;;;-1.00;74.56
4392;BME280;2210;51.938;8.488;2022-12-18T18:38:43;101329.63;;;-1.05;75.28
4392;BME280;2210;51.938;8.488;2022-12-18T18:42:44;101342.47;;;-1.07;75.27
4392;BME280;2210;51.938;8.488;2022-12-18T18:46:44;101314.81;;;-1.10;75.70
4392;BME280;2210;51.938;8.488;2022-12-18T18:50:54;101321.22;;;-1.11;76.62
4392;BME280;2210;51.938;8.488;2022-12-18T18:54:55;101317.97;;;-1.15;77.20
4392;BME280;2210;51.938;8.488;2022-12-18T18:58:55;101328.34;;;-1.20;78.15
4392;BME280;2210;51.938;8.488;2022-12-18T19:02:55;101323.91;;;-1.21;78.44
4392;BME280;2210;51.938;8.488;2022-12-18T19:06:55;101332.19;;;-1.23;79.89
4392;BME280;2210;51.938;8.488;2022-12-18T19:10:58;101343.44;;;-1.27;80.21
4392;BME280;2210;51.938;8.488;2022-12-18T19:15:05;101334.59;;;-1.29;81.13
4392;BME280;2210;51.938;8.488;2022-12-18T19:19:09;101324.75;;;-1.30;81.75
4392;BME280;2210;51.938;8.488;2022-12-18T19:23:10;101333.88;;;-1.31;82.16
4392;BME280;2210;51.938;8.488;2022-12-18T19:27:13;101330.47;;;-1.33;83.27
4392;BME280;2210;51.938;8.488;2022-12-18T19:31:17;101333.31;;;-1.35;83.51
4392;BME280;2210;51.938;8.488;2022-12-18T19:35:18;101334.16;;;-1.34;84.42
4392;BME280;2210;51.938;8.488;2022-12-18T19:39:18;101349.41;;;-1.33;84.38
4392;BME280;2210;51.938;8.488;2022-12-18T19:43:18;101341.28;;;-1.33;84.85
4392;BME280;2210;51.938;8.488;2022-12-18T19:47:25;101352.38;;;-1.37;85.58
4392;BME280;2210;51.938;8.488;2022-12-18T19:51:26;101354.22;;;-1.37;85.71
4392;BME280;2210;51.938;8.488;2022-12-18T19:55:30;101368.63;;;-1.37;85.78
4392;BME280;2210;51.938;8.488;2022-12-18T19:59:31;101363.34;;;-1.38;86.89
4392;BME280;2210;51.938;8.488;2022-12-18T20:03:31;101361.78;;;-1.41;86.67
4392;BME280;2210;51.938;8.488;2022-12-18T20:07:32;101359.34;;;-1.44;87.52
4392;BME280;2210;51.938;8.488;2022-12-18T20:11:33;101358.63;;;-1.46;87.13
4392;BME280;2210;51.938;8.488;2022-12-18T20:15:34;101338.97;;;-1.48;87.84
4392;BME280;2210;51.938;8.488;2022-12-18T20:19:34;101332.84;;;-1.50;88.25
4392;BME280;2210;51.938;8.488;2022-12-18T20:23:35;101350.78;;;-1.49;88.65
4392;BME280;2210;51.938;8.488;2022-12-18T20:27:35;101347.22;;;-1.49;88.37
4392;BME280;2210;51.938;8.488;2022-12-18T20:31:35;101342.94;;;-1.52;88.68
4392;BME280;2210;51.938;8.488;2022-12-18T20:35:36;101340.38;;;-1.54;89.63
4392;BME280;2210;51.938;8.488;2022-12-18T20:39:36;101352.75;;;-1.51;90.22
4392;BME280;2210;51.938;8.488;2022-12-18T20:43:37;101353.75;;;-1.52;90.10
4392;BME280;2210;51.938;8.488;2022-12-18T20:47:38;101350.34;;;-1.54;90.64
4392;BME280;2210;51.938;8.488;2022-12-18T20:51:41;101350.34;;;-1.54;90.78
4392;BME280;2210;51.938;8.488;2022-12-18T20:55:45;101343.22;;;-1.55;90.97
4392;BME280;2210;51.938;8.488;2022-12-18T20:59:45;101332.41;;;-1.55;91.88
4392;BME280;2210;51.938;8.488;2022-12-18T21:03:55;101339.53;;;-1.54;92.15
4392;BME280;2210;51.938;8.488;2022-12-18T21:07:58;101333.97;;;-1.53;92.45
4392;BME280;2210;51.938;8.488;2022-12-18T21:11:58;101333.84;;;-1.51;92.42
4392;BME280;2210;51.938;8.488;2022-12-18T21:16:18;101329.00;;;-1.47;92.99
4392;BME280;2210;51.938;8.488;2022-12-18T21:20:21;101335.25;;;-1.47;93.08
4392;BME280;2210;51.938;8.488;2022-12-18T21:24:21;101323.47;;;-1.46;93.33
4392;BME280;2210;51.938;8.488;2022-12-18T21:28:22;101331.28;;;-1.43;93.26
4392;BME280;2210;51.938;8.488;2022-12-18T21:32:25;101335.44;;;-1.39;93.02
4392;BME280;2210;51.938;8.488;2022-12-18T21:36:26;101331.88;;;-1.39;93.40
4392;BME280;2210;51.938;8.488;2022-12-18T21:40:38;101324.47;;;-1.37;93.82
4392;BME280;2210;51.938;8.488;2022-12-18T21:44:39;101335.16;;;-1.36;93.81
4392;BME280;2210;51.938;8.488;2022-12-18T21:48:42;101327.06;;;-1.36;94.10
4392;BME280;2210;51.938;8.488;2022-12-18T21:52:49;101330.47;;;-1.33;94.46
4392;BME280;2210;51.938;8.488;2022-12-18T21:56:56;101322.19;;;-1.32;94.48
4392;BME280;2210;51.938;8.488;2022-12-18T22:00:59;101317.50;;;-1.30;94.16
4392;BME280;2210;51.938;8.488;2022-12-18T22:05:02;101310.09;;;-1.28;94.33
4392;BME280;2210;51.938;8.488;2022-12-18T22:09:04;101321.50;;;-1.24;94.73
4392;BME280;2210;51.938;8.488;2022-12-18T22:13:05;101313.38;;;-1.24;94.86
4392;BME280;2210;51.938;8.488;2022-12-18T22:17:06;101301.84;;;-1.26;94.62
4392;BME280;2210;51.938;8.488;2022-12-18T22:21:06;101305.28;;;-1.24;94.90
4392;BME280;2210;51.938;8.488;2022-12-18T22:25:07;101295.88;;;-1.20;95.42
4392;BME280;2210;51.938;8.488;2022-12-18T22:29:14;101303.84;;;-1.19;94.73
4392;BME280;2210;51.938;8.488;2022-12-18T22:33:34;101301.72;;;-1.15;95.15
4392;BME280;2210;51.938;8.488;2022-12-18T22:37:37;101289.78;;;-1.12;95.46